sensor_id;sensor_type;location;lat;lon;timestamp;temperature;humidity
46309;DHT22;32037;50.820;6.494;2023-04-16T00:02:26;13.00;83.70
46309;DHT22;32037;50.820;6.494;2023-04-16T00:04:55;13.00;83.70
46309;DHT22;32037;50.820;6.494;2023-04-16T00:07:24;13.00;83.70
46309;DHT22;32037;50.820;6.494;2023-04-16T00:09:52;13.00;83.70
46309;DHT22;32037;50.820;6.494;2023-04-16T00:12:23;13.00;83.80
46309;DHT22;32037;50.820;6.494;2023-04-16T00:14:51;13.00;83.80
46309;DHT22;32037;50.820;6.494;2023-04-16T00:17:20;13.00;83.70
46309;DHT22;32037;50.820;6.494;2023-04-16T00:19:48;13.00;83.80
46309;DHT22;32037;50.820;6.494;2023-04-16T00:22:17;13.00;83.80
46309;DHT22;32037;50.820;6.494;2023-04-16T00:24:46;13.00;83.90
46309;DHT22;32037;50.820;6.494;2023-04-16T00:27:14;13.00;85.20
46309;DHT22;32037;50.820;6.494;2023-04-16T00:29:44;13.00;83.90
46309;DHT22;32037;50.820;6.494;2023-04-16T00:32:13;13.00;83.90
46309;DHT22;32037;50.820;6.494;2023-04-16T00:34:42;13.00;84.00
46309;DHT22;32037;50.820;6.494;2023-04-16T00:37:10;13.00;83.90
46309;DHT22;32037;50.820;6.494;2023-04-16T00:39:39;13.00;84.00
46309;DHT22;32037;50.820;6.494;2023-04-16T00:42:08;13.00;83.90
46309;DHT22;32037;50.820;6.494;2023-04-16T00:44:36;13.00;84.10
46309;DHT22;32037;50.820;6.494;2023-04-16T00:47:07;12.90;83.90
46309;DHT22;32037;50.820;6.494;2023-04-16T00:49:36;12.90;84.00
46309;DHT22;32037;50.820;6.494;2023-04-16T00:52:05;13.00;84.10
46309;DHT22;32037;50.820;6.494;2023-04-16T00:54:34;12.90;84.10
46309;DHT22;32037;50.820;6.494;2023-04-16T00:57:03;12.90;84.10
46309;DHT22;32037;50.820;6.494;2023-04-16T00:59:31;12.90;84.10
46309;DHT22;32037;50.820;6.494;2023-04-16T01:02:00;12.90;84.10
46309;DHT22;32037;50.820;6.494;2023-04-16T01:04:30;12.90;84.10
46309;DHT22;32037;50.820;6.494;2023-04-16T01:07:00;12.90;84.10
46309;DHT22;32037;50.820;6.494;2023-04-16T01:09:29;12.90;84.20
46309;DHT22;32037;50.820;6.494;2023-04-16T01:11:57;12.90;84.20
46309;DHT22;32037;50.820;6.494;2023-04-16T01:14:26;12.90;84.20
46309;DHT22;32037;50.820;6.494;2023-04-16T01:16:54;12.90;84.20
46309;DHT22;32037;50.820;6.494;2023-04-16T01:19:23;12.90;84.20
46309;DHT22;32037;50.820;6.494;2023-04-16T01:21:53;12.90;84.30
46309;DHT22;32037;50.820;6.494;2023-04-16T01:24:22;12.90;84.20
46309;DHT22;32037;50.820;6.494;2023-04-16T01:26:50;12.90;84.50
46309;DHT22;32037;50.820;6.494;2023-04-16T01:29:19;12.90;84.40
46309;DHT22;32037;50.820;6.494;2023-04-16T01:31:49;12.90;84.50
46309;DHT22;32037;50.820;6.494;2023-04-16T01:34:24;12.90;84.60
46309;DHT22;32037;50.820;6.494;2023-04-16T01:36:54;12.90;84.70
46309;DHT22;32037;50.820;6.494;2023-04-16T01:39:23;12.90;84.60
46309;DHT22;32037;50.820;6.494;2023-04-16T01:41:52;12.90;84.60
46309;DHT22;32037;50.820;6.494;2023-04-16T01:44:20;12.90;84.50
46309;DHT22;32037;50.820;6.494;2023-04-16T01:46:49;12.90;84.50
46309;DHT22;32037;50.820;6.494;2023-04-16T01:49:20;12.80;84.40
46309;DHT22;32037;50.820;6.494;2023-04-16T01:51:49;12.80;84.50
46309;DHT22;32037;50.820;6.494;2023-04-16T01:54:20;12.80;84.60
46309;DHT22;32037;50.820;6.494;2023-04-16T01:56:49;12.80;84.60
46309;DHT22;32037;50.820;6.494;2023-04-16T01:59:17;12.80;84.70
46309;DHT22;32037;50.820;6.494;2023-04-16T02:01:46;12.80;84.60
46309;DHT22;32037;50.820;6.494;2023-04-16T02:04:15;12.80;84.60
46309;DHT22;32037;50.820;6.494;2023-04-16T02:06:44;12.80;84.70
46309;DHT22;32037;50.820;6.494;2023-04-16T02:09:13;12.90;84.80
46309;DHT22;32037;50.820;6.494;2023-04-16T02:11:43;12.80;84.60
46309;DHT22;32037;50.820;6.494;2023-04-16T02:14:12;12.80;84.70
46309;DHT22;32037;50.820;6.494;2023-04-16T02:16:41;12.80;84.80
46309;DHT22;32037;50.820;6.494;2023-04-16T02:19:30;12.80;84.70
46309;DHT22;32037;50.820;6.494;2023-04-16T02:21:59;12.80;84.80
46309;DHT22;32037;50.820;6.494;2023-04-16T02:24:29;12.80;84.80
46309;DHT22;32037;50.820;6.494;2023-04-16T02:27:02;12.80;84.80
46309;DHT22;32037;50.820;6.494;2023-04-16T02:29:30;12.80;84.80
46309;DHT22;32037;50.820;6.494;2023-04-16T02:32:07;12.80;84.80
46309;DHT22;32037;50.820;6.494;2023-04-16T02:34:36;12.80;84.90
46309;DHT22;32037;50.820;6.494;2023-04-16T02:37:06;12.80;85.00
46309;DHT22;32037;50.820;6.494;2023-04-16T02:39:35;12.80;85.00
46309;DHT22;32037;50.820;6.494;2023-04-16T02:42:05;12.80;84.90
46309;DHT22;32037;50.820;6.494;2023-04-16T02:44:34;12.80;85.00
46309;DHT22;32037;50.820;6.494;2023-04-16T02:47:03;12.80;85.10
46309;DHT22;32037;50.820;6.494;2023-04-16T02:49:31;12.80;85.10
46309;DHT22;32037;50.820;6.494;2023-04-16T02:52:01;12.80;85.00
46309;DHT22;32037;50.820;6.494;2023-04-16T02:54:30;12.80;85.10
46309;DHT22;32037;50.820;6.494;2023-04-16T02:56:59;12.80;85.10
46309;DHT22;32037;50.820;6.494;2023-04-16T02:59:30;12.80;85.10
46309;DHT22;32037;50.820;6.494;2023-04-16T03:01:58;12.80;85.10
46309;DHT22;32037;50.820;6.494;2023-04-16T03:04:27;12.80;85.20
46309;DHT22;32037;50.820;6.494;2023-04-16T03:06:56;12.80;85.10
46309;DHT22;32037;50.820;6.494;2023-04-16T03:09:24;12.80;85.20
46309;DHT22;32037;50.820;6.494;2023-04-16T03:11:53;12.80;85.20
46309;DHT22;32037;50.820;6.494;2023-04-16T03:14:22;12.80;85.10
46309;DHT22;32037;50.820;6.494;2023-04-16T03:16:52;12.80;85.10
46309;DHT22;32037;50.820;6.494;2023-04-16T03:19:21;12.80;85.10
46309;DHT22;32037;50.820;6.494;2023-04-16T03:21:50;12.80;85.30
46309;DHT22;32037;50.820;6.494;2023-04-16T03:24:18;12.70;85.10
46309;DHT22;32037;50.820;6.494;2023-04-16T03:26:48;12.70;85.00
46309;DHT22;32037;50.820;6.494;2023-04-16T03:29:17;12.80;85.20
46309;DHT22;32037;50.820;6.494;2023-04-16T03:31:47;12.70;85.20
46309;DHT22;32037;50.820;6.494;2023-04-16T03:34:17;12.80;85.30
46309;DHT22;32037;50.820;6.494;2023-04-16T03:36:46;12.70;85.20
46309;DHT22;32037;50.820;6.494;2023-04-16T03:39:14;12.70;85.20
46309;DHT22;32037;50.820;6.494;2023-04-16T03:41:43;12.70;85.20
46309;DHT22;32037;50.820;6.494;2023-04-16T03:44:11;12.70;85.30
46309;DHT22;32037;50.820;6.494;2023-04-16T03:46:41;12.70;85.30
46309;DHT22;32037;50.820;6.494;2023-04-16T03:49:09;12.70;85.30
46309;DHT22;32037;50.820;6.494;2023-04-16T03:51:39;12.70;85.30
46309;DHT22;32037;50.820;6.494;2023-04-16T03:54:08;12.70;85.40
46309;DHT22;32037;50.820;6.494;2023-04-16T03:56:39;12.70;85.50
46309;DHT22;32037;50.820;6.494;2023-04-16T03:59:07;12.70;85.50
46309;DHT22;32037;50.820;6.494;2023-04-16T04:01:37;12.70;85.40
46309;DHT22;32037;50.820;6.494;2023-04-16T04:04:06;12.70;85.70
46309;DHT22;32037;50.820;6.494;2023-04-16T04:06:36;12.70;85.70
46309;DHT22;32037;50.820;6.494;2023-04-16T04:09:06;12.70;85.90
46309;DHT22;32037;50.820;6.494;2023-04-16T04:11:35;12.70;85.80
46309;DHT22;32037;50.820;6.494;2023-04-16T04:14:04;12.70;85.80
46309;DHT22;32037;50.820;6.494;2023-04-16T04:16:33;12.70;85.90
46309;DHT22;32037;50.820;6.494;2023-04-16T04:19:01;12.70;86.00
46309;DHT22;32037;50.820;6.494;2023-04-16T04:21:30;12.70;85.90
46309;DHT22;32037;50.820;6.494;2023-04-16T04:23:59;12.70;85.90
46309;DHT22;32037;50.820;6.494;2023-04-16T04:26:30;12.70;85.90
46309;DHT22;32037;50.820;6.494;2023-04-16T04:28:59;12.70;86.00
46309;DHT22;32037;50.820;6.494;2023-04-16T04:31:29;12.70;86.00
46309;DHT22;32037;50.820;6.494;2023-04-16T04:33:58;12.70;85.90
46309;DHT22;32037;50.820;6.494;2023-04-16T04:36:27;12.70;86.00
46309;DHT22;32037;50.820;6.494;2023-04-16T04:38:55;12.70;85.90
46309;DHT22;32037;50.820;6.494;2023-04-16T04:41:24;12.60;85.90
46309;DHT22;32037;50.820;6.494;2023-04-16T04:43:55;12.60;85.80
46309;DHT22;32037;50.820;6.494;2023-04-16T04:46:24;12.60;85.90
46309;DHT22;32037;50.820;6.494;2023-04-16T04:48:53;12.60;85.80
46309;DHT22;32037;50.820;6.494;2023-04-16T04:51:22;12.60;85.80
46309;DHT22;32037;50.820;6.494;2023-04-16T04:53:50;12.60;85.80
46309;DHT22;32037;50.820;6.494;2023-04-16T04:56:20;12.60;85.80
46309;DHT22;32037;50.820;6.494;2023-04-16T04:58:49;12.60;85.80
46309;DHT22;32037;50.820;6.494;2023-04-16T05:01:20;12.60;85.80
46309;DHT22;32037;50.820;6.494;2023-04-16T05:03:49;12.60;85.80
46309;DHT22;32037;50.820;6.494;2023-04-16T05:06:18;12.60;85.80
46309;DHT22;32037;50.820;6.494;2023-04-16T05:08:46;12.60;85.80
46309;DHT22;32037;50.820;6.494;2023-04-16T05:11:15;12.60;85.80
46309;DHT22;32037;50.820;6.494;2023-04-16T05:13:44;12.60;85.80
46309;DHT22;32037;50.820;6.494;2023-04-16T05:16:13;12.60;85.80
46309;DHT22;32037;50.820;6.494;2023-04-16T05:18:43;12.60;85.80
46309;DHT22;32037;50.820;6.494;2023-04-16T05:21:12;12.60;85.80
46309;DHT22;32037;50.820;6.494;2023-04-16T05:23:40;12.60;85.90
46309;DHT22;32037;50.820;6.494;2023-04-16T05:26:09;12.60;85.90
46309;DHT22;32037;50.820;6.494;2023-04-16T05:28:38;12.60;85.80
46309;DHT22;32037;50.820;6.494;2023-04-16T05:31:06;12.60;85.80
46309;DHT22;32037;50.820;6.494;2023-04-16T05:33:35;12.60;85.80
46309;DHT22;32037;50.820;6.494;2023-04-16T05:36:06;12.60;85.80
46309;DHT22;32037;50.820;6.494;2023-04-16T05:38:34;12.60;85.80
46309;DHT22;32037;50.820;6.494;2023-04-16T05:41:03;12.60;85.80
46309;DHT22;32037;50.820;6.494;2023-04-16T05:43:32;12.60;85.90
46309;DHT22;32037;50.820;6.494;2023-04-16T05:46:00;12.60;85.80
46309;DHT22;32037;50.820;6.494;2023-04-16T05:48:29;12.60;85.80
46309;DHT22;32037;50.820;6.494;2023-04-16T05:50:57;12.50;85.70
46309;DHT22;32037;50.820;6.494;2023-04-16T05:53:27;12.50;85.80
46309;DHT22;32037;50.820;6.494;2023-04-16T05:55:56;12.50;85.80
46309;DHT22;32037;50.820;6.494;2023-04-16T05:58:25;12.50;85.90
46309;DHT22;32037;50.820;6.494;2023-04-16T06:00:53;12.60;85.80
46309;DHT22;32037;50.820;6.494;2023-04-16T06:03:22;12.50;85.80
46309;DHT22;32037;50.820;6.494;2023-04-16T06:05:51;12.50;85.80
46309;DHT22;32037;50.820;6.494;2023-04-16T06:08:20;12.50;85.80
46309;DHT22;32037;50.820;6.494;2023-04-16T06:10:49;12.50;85.70
46309;DHT22;32037;50.820;6.494;2023-04-16T06:13:18;12.50;85.80
46309;DHT22;32037;50.820;6.494;2023-04-16T06:15:47;12.50;85.70
46309;DHT22;32037;50.820;6.494;2023-04-16T06:18:16;12.50;85.70
46309;DHT22;32037;50.820;6.494;2023-04-16T06:20:44;12.50;85.70
46309;DHT22;32037;50.820;6.494;2023-04-16T06:23:13;12.50;85.70
46309;DHT22;32037;50.820;6.494;2023-04-16T06:25:42;12.50;85.70
46309;DHT22;32037;50.820;6.494;2023-04-16T06:28:12;12.50;85.70
46309;DHT22;32037;50.820;6.494;2023-04-16T06:30:41;12.50;87.10
46309;DHT22;32037;50.820;6.494;2023-04-16T06:33:11;12.50;85.70
46309;DHT22;32037;50.820;6.494;2023-04-16T06:35:39;12.50;85.80
46309;DHT22;32037;50.820;6.494;2023-04-16T06:38:08;12.50;85.80
46309;DHT22;32037;50.820;6.494;2023-04-16T06:40:37;12.50;85.70
46309;DHT22;32037;50.820;6.494;2023-04-16T06:43:05;12.50;85.70
46309;DHT22;32037;50.820;6.494;2023-04-16T06:45:35;12.50;85.70
46309;DHT22;32037;50.820;6.494;2023-04-16T06:48:05;12.50;85.80
46309;DHT22;32037;50.820;6.494;2023-04-16T06:50:33;12.50;85.70
46309;DHT22;32037;50.820;6.494;2023-04-16T06:53:02;12.50;85.70
46309;DHT22;32037;50.820;6.494;2023-04-16T06:55:30;12.50;85.70
46309;DHT22;32037;50.820;6.494;2023-04-16T06:57:59;12.40;85.70
46309;DHT22;32037;50.820;6.494;2023-04-16T07:00:28;12.40;85.70
46309;DHT22;32037;50.820;6.494;2023-04-16T07:02:59;12.40;85.70
46309;DHT22;32037;50.820;6.494;2023-04-16T07:05:28;12.50;85.80
46309;DHT22;32037;50.820;6.494;2023-04-16T07:07:57;12.40;85.70
46309;DHT22;32037;50.820;6.494;2023-04-16T07:10:26;12.50;85.70
46309;DHT22;32037;50.820;6.494;2023-04-16T07:12:54;12.40;85.70
46309;DHT22;32037;50.820;6.494;2023-04-16T07:15:22;12.40;85.70
46309;DHT22;32037;50.820;6.494;2023-04-16T07:17:51;12.40;85.70
46309;DHT22;32037;50.820;6.494;2023-04-16T07:20:21;12.40;85.70
46309;DHT22;32037;50.820;6.494;2023-04-16T07:22:49;12.40;85.70
46309;DHT22;32037;50.820;6.494;2023-04-16T07:25:18;12.40;85.70
46309;DHT22;32037;50.820;6.494;2023-04-16T07:27:46;12.40;85.70
46309;DHT22;32037;50.820;6.494;2023-04-16T07:30:15;12.40;85.70
46309;DHT22;32037;50.820;6.494;2023-04-16T07:32:43;12.40;85.70
46309;DHT22;32037;50.820;6.494;2023-04-16T07:35:12;12.40;85.70
46309;DHT22;32037;50.820;6.494;2023-04-16T07:37:42;12.40;85.70
46309;DHT22;32037;50.820;6.494;2023-04-16T07:40:11;12.40;85.70
46309;DHT22;32037;50.820;6.494;2023-04-16T07:42:39;12.40;85.70
46309;DHT22;32037;50.820;6.494;2023-04-16T07:45:08;12.40;85.70
46309;DHT22;32037;50.820;6.494;2023-04-16T07:47:37;12.40;85.70
46309;DHT22;32037;50.820;6.494;2023-04-16T07:50:06;12.40;85.70
46309;DHT22;32037;50.820;6.494;2023-04-16T07:52:35;12.40;85.90
46309;DHT22;32037;50.820;6.494;2023-04-16T07:55:06;12.40;86.10
46309;DHT22;32037;50.820;6.494;2023-04-16T07:57:36;12.40;86.20
46309;DHT22;32037;50.820;6.494;2023-04-16T08:00:05;12.40;86.40
46309;DHT22;32037;50.820;6.494;2023-04-16T08:02:40;12.40;86.60
46309;DHT22;32037;50.820;6.494;2023-04-16T08:05:09;12.40;86.80
46309;DHT22;32037;50.820;6.494;2023-04-16T08:07:38;12.30;86.90
46309;DHT22;32037;50.820;6.494;2023-04-16T08:10:09;12.40;87.00
46309;DHT22;32037;50.820;6.494;2023-04-16T08:12:37;12.30;87.00
46309;DHT22;32037;50.820;6.494;2023-04-16T08:15:07;12.30;87.10
46309;DHT22;32037;50.820;6.494;2023-04-16T08:17:35;12.30;87.20
46309;DHT22;32037;50.820;6.494;2023-04-16T08:20:05;12.40;87.40
46309;DHT22;32037;50.820;6.494;2023-04-16T08:22:36;12.30;87.20
46309;DHT22;32037;50.820;6.494;2023-04-16T08:25:05;12.30;87.30
46309;DHT22;32037;50.820;6.494;2023-04-16T08:27:35;12.30;87.20
46309;DHT22;32037;50.820;6.494;2023-04-16T08:30:05;12.40;87.30
46309;DHT22;32037;50.820;6.494;2023-04-16T08:32:34;12.30;87.30
46309;DHT22;32037;50.820;6.494;2023-04-16T08:35:02;12.30;87.30
46309;DHT22;32037;50.820;6.494;2023-04-16T08:37:31;12.30;87.20
46309;DHT22;32037;50.820;6.494;2023-04-16T08:39:59;12.30;87.20
46309;DHT22;32037;50.820;6.494;2023-04-16T08:42:30;12.30;87.20
46309;DHT22;32037;50.820;6.494;2023-04-16T08:45:05;12.30;87.30
46309;DHT22;32037;50.820;6.494;2023-04-16T08:47:35;12.30;87.30
46309;DHT22;32037;50.820;6.494;2023-04-16T08:50:05;12.30;87.30
46309;DHT22;32037;50.820;6.494;2023-04-16T08:52:37;12.30;87.20
46309;DHT22;32037;50.820;6.494;2023-04-16T08:55:11;12.30;87.30
46309;DHT22;32037;50.820;6.494;2023-04-16T08:57:46;12.30;87.30
46309;DHT22;32037;50.820;6.494;2023-04-16T09:00:16;12.30;87.40
46309;DHT22;32037;50.820;6.494;2023-04-16T09:02:44;12.30;87.50
46309;DHT22;32037;50.820;6.494;2023-04-16T09:05:14;12.30;87.40
46309;DHT22;32037;50.820;6.494;2023-04-16T09:07:44;12.30;87.50
46309;DHT22;32037;50.820;6.494;2023-04-16T09:10:14;12.30;87.60
46309;DHT22;32037;50.820;6.494;2023-04-16T09:12:43;12.30;87.60
46309;DHT22;32037;50.820;6.494;2023-04-16T09:15:12;12.30;87.70
46309;DHT22;32037;50.820;6.494;2023-04-16T09:17:42;12.30;87.70
46309;DHT22;32037;50.820;6.494;2023-04-16T09:20:11;12.30;87.80
46309;DHT22;32037;50.820;6.494;2023-04-16T09:22:43;12.30;87.80
46309;DHT22;32037;50.820;6.494;2023-04-16T09:25:12;12.20;87.80
46309;DHT22;32037;50.820;6.494;2023-04-16T09:27:41;12.20;87.70
46309;DHT22;32037;50.820;6.494;2023-04-16T09:30:23;12.20;87.80
46309;DHT22;32037;50.820;6.494;2023-04-16T09:33:13;12.20;88.00
46309;DHT22;32037;50.820;6.494;2023-04-16T09:35:48;12.20;87.90
46309;DHT22;32037;50.820;6.494;2023-04-16T09:38:17;12.20;88.00
46309;DHT22;32037;50.820;6.494;2023-04-16T09:40:46;12.20;88.00
46309;DHT22;32037;50.820;6.494;2023-04-16T09:43:16;12.20;88.00
46309;DHT22;32037;50.820;6.494;2023-04-16T09:45:48;12.20;87.90
46309;DHT22;32037;50.820;6.494;2023-04-16T09:48:29;12.20;87.90
46309;DHT22;32037;50.820;6.494;2023-04-16T09:50:58;12.20;87.80
46309;DHT22;32037;50.820;6.494;2023-04-16T09:53:28;12.20;87.90
46309;DHT22;32037;50.820;6.494;2023-04-16T09:55:57;12.20;87.80
46309;DHT22;32037;50.820;6.494;2023-04-16T09:58:26;12.30;88.00
46309;DHT22;32037;50.820;6.494;2023-04-16T10:00:55;12.20;87.90
46309;DHT22;32037;50.820;6.494;2023-04-16T10:03:32;12.20;88.10
46309;DHT22;32037;50.820;6.494;2023-04-16T10:06:06;12.20;88.10
46309;DHT22;32037;50.820;6.494;2023-04-16T10:08:35;12.20;88.30
46309;DHT22;32037;50.820;6.494;2023-04-16T10:11:03;12.20;88.30
46309;DHT22;32037;50.820;6.494;2023-04-16T10:13:32;12.20;88.40
46309;DHT22;32037;50.820;6.494;2023-04-16T10:16:00;12.20;88.40
46309;DHT22;32037;50.820;6.494;2023-04-16T10:18:31;12.20;88.40
46309;DHT22;32037;50.820;6.494;2023-04-16T10:21:01;12.20;88.30
46309;DHT22;32037;50.820;6.494;2023-04-16T10:23:29;12.20;88.30
46309;DHT22;32037;50.820;6.494;2023-04-16T10:25:58;12.20;88.30
46309;DHT22;32037;50.820;6.494;2023-04-16T10:28:27;12.20;88.40
46309;DHT22;32037;50.820;6.494;2023-04-16T10:30:57;12.20;88.30
46309;DHT22;32037;50.820;6.494;2023-04-16T10:33:27;12.20;88.30
46309;DHT22;32037;50.820;6.494;2023-04-16T10:36:11;12.20;88.30
46309;DHT22;32037;50.820;6.494;2023-04-16T10:38:44;12.20;88.40
46309;DHT22;32037;50.820;6.494;2023-04-16T10:41:12;12.20;88.50
46309;DHT22;32037;50.820;6.494;2023-04-16T10:43:44;12.20;88.40
46309;DHT22;32037;50.820;6.494;2023-04-16T10:46:17;12.20;88.50
46309;DHT22;32037;50.820;6.494;2023-04-16T10:48:47;12.20;88.60
46309;DHT22;32037;50.820;6.494;2023-04-16T10:51:26;12.10;88.40
46309;DHT22;32037;50.820;6.494;2023-04-16T10:53:56;12.20;88.70
46309;DHT22;32037;50.820;6.494;2023-04-16T10:56:25;12.20;88.60
46309;DHT22;32037;50.820;6.494;2023-04-16T10:58:54;12.20;88.60
46309;DHT22;32037;50.820;6.494;2023-04-16T11:01:30;12.20;88.70
46309;DHT22;32037;50.820;6.494;2023-04-16T11:04:00;12.20;88.70
46309;DHT22;32037;50.820;6.494;2023-04-16T11:06:31;12.10;88.60
46309;DHT22;32037;50.820;6.494;2023-04-16T11:09:02;12.10;88.50
46309;DHT22;32037;50.820;6.494;2023-04-16T11:11:37;12.10;88.90
46309;DHT22;32037;50.820;6.494;2023-04-16T11:14:08;12.10;88.60
46309;DHT22;32037;50.820;6.494;2023-04-16T11:16:39;12.10;88.50
46309;DHT22;32037;50.820;6.494;2023-04-16T11:19:15;12.10;88.50
46309;DHT22;32037;50.820;6.494;2023-04-16T11:21:45;12.20;88.70
46309;DHT22;32037;50.820;6.494;2023-04-16T11:24:14;12.10;88.50
46309;DHT22;32037;50.820;6.494;2023-04-16T11:26:42;12.20;88.40
46309;DHT22;32037;50.820;6.494;2023-04-16T11:29:13;12.10;88.40
46309;DHT22;32037;50.820;6.494;2023-04-16T11:31:42;12.10;88.50
46309;DHT22;32037;50.820;6.494;2023-04-16T11:34:17;12.20;88.40
46309;DHT22;32037;50.820;6.494;2023-04-16T11:36:48;12.10;88.70
46309;DHT22;32037;50.820;6.494;2023-04-16T11:39:17;12.10;88.60
46309;DHT22;32037;50.820;6.494;2023-04-16T11:41:47;12.10;88.40
46309;DHT22;32037;50.820;6.494;2023-04-16T11:44:20;12.10;89.30
46309;DHT22;32037;50.820;6.494;2023-04-16T11:46:50;12.10;89.50
46309;DHT22;32037;50.820;6.494;2023-04-16T11:49:26;12.10;90.00
46309;DHT22;32037;50.820;6.494;2023-04-16T11:51:56;12.20;90.00
46309;DHT22;32037;50.820;6.494;2023-04-16T11:54:25;12.20;90.20
46309;DHT22;32037;50.820;6.494;2023-04-16T11:56:53;12.20;90.70
46309;DHT22;32037;50.820;6.494;2023-04-16T11:59:22;12.10;90.50
46309;DHT22;32037;50.820;6.494;2023-04-16T12:01:51;12.10;90.50
46309;DHT22;32037;50.820;6.494;2023-04-16T12:04:22;12.10;90.20
46309;DHT22;32037;50.820;6.494;2023-04-16T12:07:08;12.10;90.60
46309;DHT22;32037;50.820;6.494;2023-04-16T12:09:37;12.20;90.60
46309;DHT22;32037;50.820;6.494;2023-04-16T12:12:24;12.20;90.60
46309;DHT22;32037;50.820;6.494;2023-04-16T12:14:53;12.20;90.30
46309;DHT22;32037;50.820;6.494;2023-04-16T12:17:23;12.20;90.10
46309;DHT22;32037;50.820;6.494;2023-04-16T12:19:56;12.20;90.10
46309;DHT22;32037;50.820;6.494;2023-04-16T12:22:28;12.10;90.20
46309;DHT22;32037;50.820;6.494;2023-04-16T12:24:59;12.20;90.30
46309;DHT22;32037;50.820;6.494;2023-04-16T12:27:45;12.10;90.20
46309;DHT22;32037;50.820;6.494;2023-04-16T12:30:18;12.10;90.30
46309;DHT22;32037;50.820;6.494;2023-04-16T12:32:52;12.10;90.20
46309;DHT22;32037;50.820;6.494;2023-04-16T12:35:29;12.10;90.70
46309;DHT22;32037;50.820;6.494;2023-04-16T12:37:59;12.10;90.40
46309;DHT22;32037;50.820;6.494;2023-04-16T12:40:29;12.10;90.30
46309;DHT22;32037;50.820;6.494;2023-04-16T12:42:58;12.10;90.30
46309;DHT22;32037;50.820;6.494;2023-04-16T12:45:29;12.10;90.40
46309;DHT22;32037;50.820;6.494;2023-04-16T12:47:57;12.10;90.40
46309;DHT22;32037;50.820;6.494;2023-04-16T12:50:26;12.10;90.30
46309;DHT22;32037;50.820;6.494;2023-04-16T12:52:56;12.10;90.30
46309;DHT22;32037;50.820;6.494;2023-04-16T12:55:27;12.10;90.30
46309;DHT22;32037;50.820;6.494;2023-04-16T12:57:55;12.10;90.40
46309;DHT22;32037;50.820;6.494;2023-04-16T13:00:24;12.10;90.20
46309;DHT22;32037;50.820;6.494;2023-04-16T13:02:52;12.10;90.40
46309;DHT22;32037;50.820;6.494;2023-04-16T13:05:21;12.10;90.30
46309;DHT22;32037;50.820;6.494;2023-04-16T13:07:50;12.10;90.40
46309;DHT22;32037;50.820;6.494;2023-04-16T13:10:20;12.10;90.50
46309;DHT22;32037;50.820;6.494;2023-04-16T13:12:51;12.10;90.50
46309;DHT22;32037;50.820;6.494;2023-04-16T13:15:19;12.10;90.40
46309;DHT22;32037;50.820;6.494;2023-04-16T13:17:48;12.10;90.50
46309;DHT22;32037;50.820;6.494;2023-04-16T13:20:16;12.10;90.40
46309;DHT22;32037;50.820;6.494;2023-04-16T13:22:45;12.10;90.50
46309;DHT22;32037;50.820;6.494;2023-04-16T13:25:14;12.10;90.50
46309;DHT22;32037;50.820;6.494;2023-04-16T13:27:42;12.10;90.50
46309;DHT22;32037;50.820;6.494;2023-04-16T13:30:12;12.10;90.50
46309;DHT22;32037;50.820;6.494;2023-04-16T13:32:41;12.20;91.80
46309;DHT22;32037;50.820;6.494;2023-04-16T13:35:09;12.20;91.20
46309;DHT22;32037;50.820;6.494;2023-04-16T13:37:39;12.10;91.10
46309;DHT22;32037;50.820;6.494;2023-04-16T13:40:08;12.20;91.10
46309;DHT22;32037;50.820;6.494;2023-04-16T13:42:37;12.20;91.20
46309;DHT22;32037;50.820;6.494;2023-04-16T13:45:06;12.20;91.30
46309;DHT22;32037;50.820;6.494;2023-04-16T13:47:39;12.20;91.20
46309;DHT22;32037;50.820;6.494;2023-04-16T13:50:09;12.10;91.10
46309;DHT22;32037;50.820;6.494;2023-04-16T13:52:37;12.20;91.10
46309;DHT22;32037;50.820;6.494;2023-04-16T13:55:06;12.10;91.20
46309;DHT22;32037;50.820;6.494;2023-04-16T13:57:36;12.20;91.20
46309;DHT22;32037;50.820;6.494;2023-04-16T14:00:05;12.10;91.10
46309;DHT22;32037;50.820;6.494;2023-04-16T14:02:40;12.20;91.20
46309;DHT22;32037;50.820;6.494;2023-04-16T14:05:12;12.20;91.20
46309;DHT22;32037;50.820;6.494;2023-04-16T14:07:40;12.10;91.10
46309;DHT22;32037;50.820;6.494;2023-04-16T14:10:09;12.10;91.00
46309;DHT22;32037;50.820;6.494;2023-04-16T14:12:38;12.10;91.10
46309;DHT22;32037;50.820;6.494;2023-04-16T14:15:07;12.10;91.10
46309;DHT22;32037;50.820;6.494;2023-04-16T14:17:36;12.10;91.20
46309;DHT22;32037;50.820;6.494;2023-04-16T14:20:07;12.10;91.10
46309;DHT22;32037;50.820;6.494;2023-04-16T14:22:36;12.20;91.10
46309;DHT22;32037;50.820;6.494;2023-04-16T14:25:05;12.10;91.20
46309;DHT22;32037;50.820;6.494;2023-04-16T14:27:34;12.10;91.10
46309;DHT22;32037;50.820;6.494;2023-04-16T14:30:02;12.10;91.20
46309;DHT22;32037;50.820;6.494;2023-04-16T14:32:31;12.10;91.20
46309;DHT22;32037;50.820;6.494;2023-04-16T14:35:00;12.10;91.30
46309;DHT22;32037;50.820;6.494;2023-04-16T14:37:30;12.10;91.30
46309;DHT22;32037;50.820;6.494;2023-04-16T14:40:02;12.10;91.30
46309;DHT22;32037;50.820;6.494;2023-04-16T14:42:34;12.10;91.40
46309;DHT22;32037;50.820;6.494;2023-04-16T14:45:04;12.10;91.30
46309;DHT22;32037;50.820;6.494;2023-04-16T14:47:33;12.10;91.60
46309;DHT22;32037;50.820;6.494;2023-04-16T14:50:02;12.10;91.50
46309;DHT22;32037;50.820;6.494;2023-04-16T14:52:32;12.10;91.60
46309;DHT22;32037;50.820;6.494;2023-04-16T14:55:01;12.10;91.60
46309;DHT22;32037;50.820;6.494;2023-04-16T14:57:31;12.10;91.70
46309;DHT22;32037;50.820;6.494;2023-04-16T15:00:00;12.10;91.70
46309;DHT22;32037;50.820;6.494;2023-04-16T15:02:33;12.10;91.70
46309;DHT22;32037;50.820;6.494;2023-04-16T15:05:02;12.20;91.70
46309;DHT22;32037;50.820;6.494;2023-04-16T15:07:32;12.10;91.60
46309;DHT22;32037;50.820;6.494;2023-04-16T15:10:00;12.10;91.60
46309;DHT22;32037;50.820;6.494;2023-04-16T15:12:29;12.10;91.70
46309;DHT22;32037;50.820;6.494;2023-04-16T15:14:58;12.10;91.80
46309;DHT22;32037;50.820;6.494;2023-04-16T15:17:27;12.10;91.60
46309;DHT22;32037;50.820;6.494;2023-04-16T15:20:00;12.10;91.50
46309;DHT22;32037;50.820;6.494;2023-04-16T15:22:32;12.10;91.60
46309;DHT22;32037;50.820;6.494;2023-04-16T15:25:02;12.10;91.70
46309;DHT22;32037;50.820;6.494;2023-04-16T15:27:30;12.10;91.60
46309;DHT22;32037;50.820;6.494;2023-04-16T15:29:59;12.10;91.60
46309;DHT22;32037;50.820;6.494;2023-04-16T15:32:28;12.10;91.60
46309;DHT22;32037;50.820;6.494;2023-04-16T15:34:56;12.10;91.60
46309;DHT22;32037;50.820;6.494;2023-04-16T15:37:25;12.10;91.70
46309;DHT22;32037;50.820;6.494;2023-04-16T15:39:55;12.10;91.70
46309;DHT22;32037;50.820;6.494;2023-04-16T15:42:24;12.10;91.70
46309;DHT22;32037;50.820;6.494;2023-04-16T15:44:53;12.10;91.90
46309;DHT22;32037;50.820;6.494;2023-04-16T15:47:21;12.10;91.60